Time;durP1;ratioP1;P1;durP2;ratioP2;P2;SDS_P1;SDS_P2;PMS_P1;PMS_P2;Temp;Humidity;BMP_temperature;BMP_pressure;BME280_temperature;BME280_humidity;BME280_pressure;Samples;Min_cycle;Max_cycle;Signal;HPM_P1;HPM_P2
2023/05/13 00:00:46;;;;;;;14.57;10.15;;;11.90;99.90;;;;;;5125256;27;20435;-69
2023/05/13 00:03:11;;;;;;;12.05;9.07;;;11.90;99.90;;;;;;5091257;28;20480;-69
2023/05/13 00:05:37;;;;;;;11.27;9.32;;;11.90;99.90;;;;;;5125155;27;20036;-69
2023/05/13 00:08:06;;;;;;;14.73;10.32;;;11.80;99.90;;;;;;5125104;27;20043;-69
2023/05/13 00:10:34;;;;;;;12.60;10.05;;;11.80;99.90;;;;;;5090826;28;20040;-69
2023/05/13 00:13:00;;;;;;;11.95;9.75;;;11.80;99.90;;;;;;5091733;28;20497;-70
2023/05/13 00:15:27;;;;;;;17.52;9.85;;;11.80;99.90;;;;;;5120426;27;20118;-69
2023/05/13 00:17:52;;;;;;;13.20;10.60;;;11.80;99.90;;;;;;5093074;28;20036;-69
2023/05/13 00:20:18;;;;;;;14.88;10.10;;;11.80;99.90;;;;;;5091195;28;20205;-70
2023/05/13 00:22:44;;;;;;;12.52;9.57;;;11.70;99.90;;;;;;5090235;28;20048;-69
2023/05/13 00:25:10;;;;;;;17.13;10.70;;;11.70;99.90;;;;;;5092202;28;20036;-69
2023/05/13 00:27:36;;;;;;;14.48;10.82;;;11.70;99.90;;;;;;5091138;28;20047;-69
2023/05/13 00:30:02;;;;;;;13.57;10.77;;;11.70;99.90;;;;;;5090674;28;20047;-69
2023/05/13 00:32:27;;;;;;;12.77;10.60;;;11.70;99.90;;;;;;5090765;28;20040;-69
2023/05/13 00:34:53;;;;;;;14.18;10.73;;;11.60;99.90;;;;;;5093270;28;20040;-69
2023/05/13 00:37:19;;;;;;;13.65;11.80;;;11.60;99.90;;;;;;5111609;28;20071;-70
2023/05/13 00:39:44;;;;;;;23.27;12.07;;;11.60;99.90;;;;;;5111307;28;20082;-69
2023/05/13 00:42:11;;;;;;;13.75;11.35;;;11.60;99.90;;;;;;5110983;28;20051;-69
2023/05/13 00:44:37;;;;;;;21.75;12.65;;;11.60;99.90;;;;;;5110436;28;20122;-69
2023/05/13 00:47:06;;;;;;;17.98;12.75;;;11.50;99.90;;;;;;5112542;28;20120;-69
2023/05/13 00:49:35;;;;;;;16.30;13.02;;;11.50;99.90;;;;;;5110464;28;20074;-70
2023/05/13 00:52:02;;;;;;;14.75;12.45;;;11.50;99.90;;;;;;5111163;28;20048;-69
2023/05/13 00:54:28;;;;;;;17.33;12.65;;;11.60;99.90;;;;;;5091797;28;20138;-70
2023/05/13 00:56:55;;;;;;;16.27;11.65;;;11.50;99.90;;;;;;5110658;28;20067;-69
2023/05/13 00:59:26;;;;;;;15.55;12.93;;;11.60;99.90;;;;;;5111682;28;20480;-69
2023/05/13 01:02:27;;;;;;;15.98;11.68;;;11.50;99.90;;;;;;5111664;28;20036;-69
2023/05/13 01:05:00;;;;;;;14.65;11.80;;;11.50;99.90;;;;;;5102010;28;20051;-70
2023/05/13 01:08:00;;;;;;;15.38;11.73;;;11.50;99.90;;;;;;5091339;28;20047;-70
2023/05/13 01:10:37;;;;;;;13.68;11.18;;;11.50;99.90;;;;;;5091732;28;20493;-69
2023/05/13 01:13:10;;;;;;;17.58;12.48;;;11.50;99.90;;;;;;5090725;28;20043;-69
2023/05/13 01:16:19;;;;;;;16.10;12.20;;;11.40;99.90;;;;;;5090644;28;20562;-70
2023/05/13 01:19:33;;;;;;;15.70;12.52;;;11.40;99.90;;;;;;5076624;28;20045;-69
2023/05/13 01:21:58;;;;;;;13.93;11.10;;;11.40;99.90;;;;;;5083305;28;20044;-70
2023/05/13 01:24:24;;;;;;;14.55;11.68;;;11.30;99.90;;;;;;5090154;28;20035;-70
2023/05/13 01:26:50;;;;;;;15.13;11.80;;;11.30;99.90;;;;;;5089984;28;20044;-70
2023/05/13 01:29:16;;;;;;;13.00;10.80;;;11.30;99.90;;;;;;5090479;28;20040;-70
2023/05/13 01:31:42;;;;;;;14.27;12.23;;;11.30;99.90;;;;;;5090244;28;20389;-70
2023/05/13 01:34:10;;;;;;;18.10;11.98;;;11.30;99.90;;;;;;5090566;28;20048;-69
2023/05/13 01:36:38;;;;;;;15.32;12.75;;;11.20;99.90;;;;;;5090432;28;20400;-69
2023/05/13 01:39:04;;;;;;;18.00;13.00;;;11.20;99.90;;;;;;5105756;28;20067;-70
2023/05/13 01:41:29;;;;;;;14.05;12.55;;;11.20;99.90;;;;;;5109987;28;20052;-69
2023/05/13 01:43:55;;;;;;;13.98;12.07;;;11.20;99.90;;;;;;5111002;28;20059;-69
2023/05/13 01:46:21;;;;;;;15.05;11.65;;;11.20;99.90;;;;;;5096367;28;20042;-70
2023/05/13 01:48:47;;;;;;;15.15;11.70;;;11.20;99.90;;;;;;5090542;28;20040;-69
2023/05/13 01:51:12;;;;;;;20.30;11.63;;;11.20;99.90;;;;;;5090295;28;20032;-69
2023/05/13 01:53:38;;;;;;;15.23;12.13;;;11.20;99.90;;;;;;5089919;28;20032;-70
2023/05/13 01:56:04;;;;;;;18.45;12.55;;;11.20;99.90;;;;;;5091629;28;20408;-70
2023/05/13 01:58:30;;;;;;;15.27;12.35;;;11.10;99.90;;;;;;5089985;28;20040;-70
2023/05/13 02:00:55;;;;;;;18.08;12.52;;;11.10;99.90;;;;;;5089837;28;20051;-70
2023/05/13 02:03:21;;;;;;;14.40;11.23;;;11.10;99.90;;;;;;5089901;28;20552;-70
2023/05/13 02:05:47;;;;;;;17.02;12.27;;;11.10;99.90;;;;;;5092465;28;20105;-69
2023/05/13 02:08:13;;;;;;;16.08;12.25;;;11.10;99.90;;;;;;5076077;28;20043;-69
2023/05/13 02:10:39;;;;;;;14.10;11.15;;;11.10;99.90;;;;;;5093831;28;20745;-70
2023/05/13 02:13:04;;;;;;;14.50;11.20;;;11.10;99.90;;;;;;5094305;28;20478;-70
2023/05/13 02:15:30;;;;;;;14.07;11.63;;;11.10;99.90;;;;;;5093717;28;20566;-70
2023/05/13 02:17:56;;;;;;;14.52;11.63;;;11.10;99.90;;;;;;5094088;28;20046;-70
2023/05/13 02:20:21;;;;;;;15.55;12.57;;;11.00;99.90;;;;;;5093167;28;20168;-70
2023/05/13 02:22:47;;;;;;;13.43;10.52;;;11.00;99.90;;;;;;5093088;28;20388;-70
2023/05/13 02:25:12;;;;;;;16.63;12.43;;;11.00;99.90;;;;;;5094701;28;20453;-70
2023/05/13 02:27:38;;;;;;;15.95;11.68;;;11.00;99.90;;;;;;5094721;28;20044;-69
2023/05/13 02:30:05;;;;;;;13.85;11.43;;;11.00;99.90;;;;;;5075929;28;20040;-70
2023/05/13 02:32:30;;;;;;;14.77;12.35;;;11.00;99.90;;;;;;5094174;28;20040;-70
2023/05/13 02:34:56;;;;;;;15.25;12.45;;;11.00;99.90;;;;;;5076162;28;20581;-70
2023/05/13 02:37:22;;;;;;;15.90;10.88;;;11.00;99.90;;;;;;5111003;28;20066;-70
2023/05/13 02:39:48;;;;;;;13.07;10.80;;;11.00;99.90;;;;;;5114132;28;20039;-70
2023/05/13 02:42:13;;;;;;;15.95;11.52;;;11.00;99.90;;;;;;5113862;28;20560;-70
2023/05/13 02:44:39;;;;;;;15.43;11.70;;;11.00;99.90;;;;;;5114512;28;20032;-70
2023/05/13 02:47:05;;;;;;;13.50;11.65;;;11.00;99.90;;;;;;5113554;28;20484;-70
2023/05/13 02:49:31;;;;;;;16.23;12.20;;;11.00;99.90;;;;;;5111934;28;20043;-70
2023/05/13 02:51:56;;;;;;;16.52;12.25;;;11.00;99.90;;;;;;5096374;28;20038;-70
2023/05/13 02:54:22;;;;;;;17.60;12.55;;;11.00;99.90;;;;;;5113129;28;20043;-70
2023/05/13 02:56:47;;;;;;;14.00;11.52;;;11.00;99.90;;;;;;5112922;28;20115;-70
2023/05/13 02:59:13;;;;;;;18.92;12.90;;;11.00;99.90;;;;;;5112844;28;20426;-70
2023/05/13 03:01:40;;;;;;;15.77;11.85;;;11.00;99.90;;;;;;5113026;28;20039;-70
2023/05/13 03:04:06;;;;;;;17.13;12.70;;;11.00;99.90;;;;;;5112313;28;20086;-70
2023/05/13 03:06:31;;;;;;;18.08;13.55;;;11.00;99.90;;;;;;5112656;28;20520;-70
2023/05/13 03:08:57;;;;;;;18.63;14.55;;;11.00;99.90;;;;;;5113208;28;20063;-70
2023/05/13 03:11:23;;;;;;;15.55;12.95;;;11.00;99.90;;;;;;5111749;28;20040;-70
2023/05/13 03:13:48;;;;;;;16.65;13.52;;;11.00;99.90;;;;;;5113144;28;20039;-70
2023/05/13 03:16:14;;;;;;;14.38;12.18;;;10.90;99.90;;;;;;5112654;28;20035;-71
2023/05/13 03:18:40;;;;;;;15.85;12.25;;;10.90;99.90;;;;;;5111704;28;20150;-70
2023/05/13 03:21:05;;;;;;;16.00;13.15;;;10.90;99.90;;;;;;5112670;28;20126;-71
2023/05/13 03:23:32;;;;;;;17.48;14.10;;;10.90;99.90;;;;;;5112244;28;20122;-70
2023/05/13 03:25:58;;;;;;;14.23;12.68;;;10.90;99.90;;;;;;5113014;28;20485;-70
2023/05/13 03:28:23;;;;;;;15.93;11.13;;;10.90;99.90;;;;;;5112496;28;20043;-70
2023/05/13 03:30:50;;;;;;;14.35;11.32;;;10.90;99.90;;;;;;5095330;28;20070;-70
2023/05/13 03:33:15;;;;;;;16.10;12.20;;;10.90;99.90;;;;;;5111611;28;20075;-70
2023/05/13 03:35:41;;;;;;;18.73;11.10;;;10.90;99.90;;;;;;5111472;28;20069;-70
2023/05/13 03:38:07;;;;;;;16.38;12.10;;;10.80;99.90;;;;;;5092166;28;20036;-70
2023/05/13 03:40:32;;;;;;;15.27;11.35;;;10.80;99.90;;;;;;5090949;28;20048;-70
2023/05/13 03:42:58;;;;;;;16.58;11.68;;;10.80;99.90;;;;;;5091960;28;20044;-70
2023/05/13 03:45:24;;;;;;;15.43;10.38;;;10.80;99.90;;;;;;5092226;28;20119;-70
2023/05/13 03:47:50;;;;;;;16.13;10.90;;;10.80;99.90;;;;;;5091669;28;20046;-70
2023/05/13 03:50:16;;;;;;;17.17;11.15;;;10.80;99.90;;;;;;5093068;28;20036;-70
2023/05/13 03:52:41;;;;;;;14.02;10.75;;;10.80;99.90;;;;;;5092576;28;20032;-70
2023/05/13 03:55:07;;;;;;;12.55;10.55;;;10.80;99.90;;;;;;5082478;28;20081;-70
2023/05/13 03:57:33;;;;;;;13.00;9.95;;;10.80;99.90;;;;;;5092960;28;20043;-70
2023/05/13 03:59:59;;;;;;;13.15;9.90;;;10.80;99.90;;;;;;5125286;27;20036;-70
2023/05/13 04:02:24;;;;;;;12.60;9.77;;;10.90;99.90;;;;;;5124996;27;20051;-70
2023/05/13 04:04:50;;;;;;;13.05;9.68;;;10.80;99.90;;;;;;5093330;28;20123;-70
2023/05/13 04:07:16;;;;;;;14.82;10.25;;;10.80;99.90;;;;;;5124892;27;20037;-70
2023/05/13 04:09:41;;;;;;;10.20;8.85;;;10.80;99.90;;;;;;5091717;28;20493;-70
2023/05/13 04:12:07;;;;;;;11.38;8.60;;;10.90;99.90;;;;;;5092984;28;20499;-71
2023/05/13 04:14:33;;;;;;;12.10;8.52;;;10.90;99.90;;;;;;5073577;28;20044;-70
2023/05/13 04:16:58;;;;;;;12.25;8.77;;;10.90;99.90;;;;;;5092635;28;20039;-70
2023/05/13 04:19:24;;;;;;;12.32;9.50;;;10.90;99.90;;;;;;5091313;28;20138;-70
2023/05/13 04:21:50;;;;;;;15.30;8.75;;;10.90;99.90;;;;;;5124910;27;20121;-70
2023/05/13 04:24:15;;;;;;;12.30;8.20;;;11.00;99.90;;;;;;5092505;28;20081;-70
2023/05/13 04:26:41;;;;;;;11.90;8.68;;;11.10;99.90;;;;;;5124704;27;20035;-70
2023/05/13 04:29:07;;;;;;;10.75;8.80;;;11.10;99.90;;;;;;5073257;28;20067;-70
2023/05/13 04:31:32;;;;;;;10.95;8.75;;;11.10;99.90;;;;;;5090686;28;20069;-70
2023/05/13 04:33:58;;;;;;;11.15;8.23;;;11.20;99.90;;;;;;5074794;28;20051;-70
2023/05/13 04:36:24;;;;;;;12.20;8.82;;;11.20;99.90;;;;;;5090117;28;20508;-71
2023/05/13 04:38:49;;;;;;;12.32;8.10;;;11.20;99.90;;;;;;5091208;28;20040;-70
2023/05/13 04:41:15;;;;;;;12.32;8.52;;;11.20;99.90;;;;;;5119637;27;20080;-70
2023/05/13 04:43:41;;;;;;;12.43;8.18;;;11.30;99.90;;;;;;5095197;28;20075;-70
2023/05/13 04:46:06;;;;;;;10.77;8.05;;;11.30;99.90;;;;;;5091297;28;20501;-70
2023/05/13 04:48:32;;;;;;;11.50;8.77;;;11.30;99.90;;;;;;5089978;28;20449;-71
2023/05/13 04:50:57;;;;;;;12.15;8.07;;;11.40;99.90;;;;;;5090968;28;20407;-70
2023/05/13 04:53:23;;;;;;;12.18;8.20;;;11.40;99.90;;;;;;5091920;28;20083;-70
2023/05/13 04:55:49;;;;;;;10.00;7.43;;;11.40;99.90;;;;;;5073788;28;20044;-70
2023/05/13 04:58:15;;;;;;;11.75;8.50;;;11.50;99.90;;;;;;5090602;28;20119;-71
2023/05/13 05:00:41;;;;;;;12.95;8.13;;;11.50;99.90;;;;;;5087920;28;20044;-71
2023/05/13 05:03:07;;;;;;;10.75;7.35;;;11.50;99.90;;;;;;5087973;28;20097;-71
2023/05/13 05:05:32;;;;;;;10.35;8.43;;;11.60;99.90;;;;;;5087854;28;20032;-71
2023/05/13 05:07:58;;;;;;;12.02;7.57;;;11.70;99.90;;;;;;5098466;28;20031;-71
2023/05/13 05:10:23;;;;;;;11.27;8.38;;;11.80;99.90;;;;;;5106804;28;20040;-71
2023/05/13 05:12:49;;;;;;;11.18;7.80;;;11.90;99.90;;;;;;5108744;28;20043;-71
2023/05/13 05:15:15;;;;;;;9.55;7.57;;;12.00;99.90;;;;;;5109253;28;20079;-71
2023/05/13 05:17:42;;;;;;;10.13;6.97;;;12.10;99.90;;;;;;5107653;28;20047;-71
2023/05/13 05:20:09;;;;;;;12.38;6.93;;;12.30;99.90;;;;;;5084776;28;20043;-70
2023/05/13 05:22:40;;;;;;;11.52;6.68;;;12.40;99.90;;;;;;5108032;28;20043;-71
2023/05/13 05:25:06;;;;;;;10.27;7.00;;;12.60;99.90;;;;;;5104726;28;20035;-71
2023/05/13 05:27:32;;;;;;;10.00;6.53;;;12.70;99.90;;;;;;5107187;28;20048;-71
2023/05/13 05:29:58;;;;;;;9.05;7.07;;;12.80;99.90;;;;;;5108764;28;20161;-70
2023/05/13 05:32:24;;;;;;;10.13;7.18;;;12.90;99.90;;;;;;5106686;28;20041;-70
2023/05/13 05:34:49;;;;;;;9.98;6.93;;;13.00;99.90;;;;;;5106801;28;20050;-71
2023/05/13 05:37:15;;;;;;;9.93;6.55;;;13.10;99.90;;;;;;5090468;28;20093;-71
2023/05/13 05:39:41;;;;;;;12.60;7.10;;;13.20;99.90;;;;;;5107994;28;20043;-71
2023/05/13 05:42:07;;;;;;;12.07;6.93;;;13.20;99.90;;;;;;5111690;28;20055;-71
2023/05/13 05:44:33;;;;;;;10.23;6.82;;;13.40;99.90;;;;;;5110642;28;20043;-71
2023/05/13 05:46:58;;;;;;;9.20;6.80;;;13.50;99.90;;;;;;5105847;28;20084;-71
2023/05/13 05:49:24;;;;;;;10.15;6.13;;;13.50;99.90;;;;;;5103875;28;20036;-71
2023/05/13 05:51:50;;;;;;;12.52;6.32;;;13.60;99.90;;;;;;5113449;28;20063;-71
2023/05/13 05:54:15;;;;;;;11.15;6.60;;;13.60;99.90;;;;;;5113379;28;20031;-70
2023/05/13 05:56:41;;;;;;;9.25;6.18;;;13.70;99.90;;;;;;5114262;28;20035;-70
2023/05/13 05:59:07;;;;;;;10.07;6.47;;;13.80;99.90;;;;;;5113763;28;20081;-71
2023/05/13 06:01:35;;;;;;;10.30;6.03;;;13.80;99.90;;;;;;5096960;28;20027;-71
2023/05/13 06:04:01;;;;;;;10.10;6.43;;;13.90;99.90;;;;;;5099356;28;20089;-70
2023/05/13 06:06:27;;;;;;;10.30;6.63;;;14.00;99.90;;;;;;5126821;27;20072;-68
2023/05/13 06:08:53;;;;;;;9.75;6.00;;;14.10;99.90;;;;;;5127925;27;20078;-66
2023/05/13 06:11:18;;;;;;;11.60;7.20;;;14.20;99.90;;;;;;5127607;27;20119;-64
2023/05/13 06:13:44;;;;;;;11.05;6.65;;;14.20;99.90;;;;;;5127019;27;20395;-66
2023/05/13 06:16:09;;;;;;;11.27;6.32;;;14.30;99.90;;;;;;5127748;27;20524;-66
2023/05/13 06:18:35;;;;;;;8.05;5.88;;;14.30;99.90;;;;;;5127416;27;20044;-69
2023/05/13 06:21:01;;;;;;;9.13;5.80;;;14.40;99.90;;;;;;5093152;28;20040;-70
2023/05/13 06:23:26;;;;;;;9.85;6.85;;;14.50;99.90;;;;;;5127234;27;20399;-67
2023/05/13 06:25:52;;;;;;;8.98;5.82;;;14.50;99.90;;;;;;5127664;27;20043;-66
2023/05/13 06:28:18;;;;;;;10.23;6.35;;;14.50;99.90;;;;;;5093659;28;20043;-64
2023/05/13 06:30:44;;;;;;;10.10;6.75;;;14.50;99.90;;;;;;5127460;27;20374;-65
2023/05/13 06:33:11;;;;;;;11.48;6.32;;;14.60;99.90;;;;;;5094650;28;20044;-66
2023/05/13 06:35:37;;;;;;;10.13;6.03;;;14.60;99.90;;;;;;5093761;28;20066;-65
2023/05/13 06:38:03;;;;;;;9.95;6.75;;;14.70;99.90;;;;;;5094701;28;20476;-66
2023/05/13 06:40:28;;;;;;;8.93;6.57;;;14.80;99.90;;;;;;5092830;28;20489;-66
2023/05/13 06:42:54;;;;;;;11.18;5.93;;;14.90;99.90;;;;;;5126037;27;20480;-66
2023/05/13 06:45:22;;;;;;;8.85;6.05;;;15.00;99.90;;;;;;5094221;28;20035;-66
2023/05/13 06:47:52;;;;;;;10.18;6.40;;;15.00;99.90;;;;;;5093276;28;20035;-67
2023/05/13 06:50:18;;;;;;;7.85;5.60;;;15.00;99.90;;;;;;5126391;27;20078;-66
2023/05/13 06:52:43;;;;;;;13.88;5.90;;;15.10;99.90;;;;;;5093701;28;20036;-64
2023/05/13 06:55:09;;;;;;;12.07;6.57;;;15.10;99.90;;;;;;5093458;28;20044;-64
2023/05/13 06:57:35;;;;;;;9.18;5.63;;;15.10;99.90;;;;;;5093509;28;20131;-64
2023/05/13 07:00:02;;;;;;;9.95;5.25;;;15.20;99.90;;;;;;5094499;28;20370;-66
2023/05/13 07:02:28;;;;;;;8.25;5.57;;;15.30;99.90;;;;;;5125669;27;20099;-67
2023/05/13 07:04:54;;;;;;;10.00;5.88;;;15.30;99.90;;;;;;5094202;28;20063;-68
2023/05/13 07:07:19;;;;;;;12.05;6.70;;;15.40;99.90;;;;;;5093412;28;20401;-68
2023/05/13 07:09:45;;;;;;;8.52;5.68;;;15.50;99.90;;;;;;5126008;27;20129;-64
2023/05/13 07:12:11;;;;;;;9.57;5.60;;;15.50;99.90;;;;;;5126378;27;20178;-65
2023/05/13 07:14:36;;;;;;;10.45;5.50;;;15.50;99.90;;;;;;5126626;27;20086;-67
2023/05/13 07:17:03;;;;;;;11.07;5.72;;;15.40;99.90;;;;;;5092090;28;20035;-66
2023/05/13 07:19:29;;;;;;;12.27;5.65;;;15.50;99.90;;;;;;5125994;27;20142;-66
2023/05/13 07:21:54;;;;;;;8.98;4.80;;;15.50;99.90;;;;;;5093717;28;20044;-65
2023/05/13 07:24:20;;;;;;;13.23;5.88;;;15.60;99.90;;;;;;5125333;27;20040;-64
2023/05/13 07:26:46;;;;;;;9.13;5.93;;;15.70;99.90;;;;;;5126895;27;20039;-64
2023/05/13 07:29:11;;;;;;;11.70;6.30;;;15.70;99.90;;;;;;5093624;28;20039;-64
2023/05/13 07:31:37;;;;;;;10.30;6.22;;;15.90;99.90;;;;;;5092654;28;20035;-65
2023/05/13 07:34:03;;;;;;;11.55;6.20;;;16.00;99.90;;;;;;5126635;27;20083;-65
2023/05/13 07:36:29;;;;;;;10.77;6.30;;;16.00;99.90;;;;;;5092980;28;20462;-67
2023/05/13 07:38:55;;;;;;;9.73;5.93;;;16.00;99.90;;;;;;5125394;27;20048;-68
2023/05/13 07:41:20;;;;;;;12.68;5.72;;;16.00;99.90;;;;;;5092579;28;20060;-65
2023/05/13 07:43:46;;;;;;;11.00;6.35;;;16.00;99.90;;;;;;5125620;27;20057;-65
2023/05/13 07:46:12;;;;;;;9.05;6.05;;;16.00;99.90;;;;;;5102840;28;20090;-68
2023/05/13 07:48:38;;;;;;;11.18;6.22;;;16.00;99.90;;;;;;5096031;28;20043;-68
2023/05/13 07:51:04;;;;;;;10.02;5.88;;;16.10;99.90;;;;;;5113115;28;20032;-67
2023/05/13 07:53:30;;;;;;;9.55;6.13;;;16.10;99.90;;;;;;5074217;28;20165;-66
2023/05/13 07:55:55;;;;;;;9.40;6.68;;;16.10;99.90;;;;;;5092215;28;20490;-67
2023/05/13 07:58:21;;;;;;;8.95;5.75;;;16.20;99.90;;;;;;5091371;28;20040;-65
2023/05/13 08:00:48;;;;;;;9.27;5.57;;;16.20;99.90;;;;;;5092275;28;20046;-67
2023/05/13 08:03:15;;;;;;;10.05;5.70;;;16.30;99.90;;;;;;5092165;28;20490;-65
2023/05/13 08:05:41;;;;;;;9.77;6.10;;;16.30;99.90;;;;;;5090831;28;20050;-65
2023/05/13 08:08:06;;;;;;;9.35;5.32;;;16.40;99.90;;;;;;5074739;28;20032;-64
2023/05/13 08:10:32;;;;;;;10.35;5.68;;;16.50;99.90;;;;;;5091191;28;20164;-64
2023/05/13 08:12:59;;;;;;;10.02;6.50;;;16.50;99.90;;;;;;5092239;28;20043;-70
2023/05/13 08:15:26;;;;;;;9.10;6.03;;;16.50;99.90;;;;;;5092511;28;20071;-67
2023/05/13 08:17:52;;;;;;;12.07;7.82;;;16.60;99.90;;;;;;5091721;28;20048;-65
2023/05/13 08:20:19;;;;;;;13.18;7.57;;;16.70;99.90;;;;;;5093216;28;20028;-68
2023/05/13 08:22:45;;;;;;;10.00;6.85;;;16.80;99.90;;;;;;5110212;28;20048;-67
2023/05/13 08:25:11;;;;;;;10.98;6.38;;;16.80;99.90;;;;;;5098167;28;20044;-68
2023/05/13 08:27:37;;;;;;;9.75;7.10;;;16.80;99.90;;;;;;5073587;28;20101;-66
2023/05/13 08:30:04;;;;;;;12.88;7.88;;;16.90;99.90;;;;;;5092645;28;20127;-67
2023/05/13 08:32:29;;;;;;;10.57;6.22;;;16.80;99.90;;;;;;5092090;28;20114;-67
2023/05/13 08:34:55;;;;;;;9.48;6.50;;;16.90;99.90;;;;;;5090394;28;20037;-67
2023/05/13 08:37:21;;;;;;;10.32;6.72;;;17.00;99.90;;;;;;5073644;28;20046;-67
2023/05/13 08:39:46;;;;;;;11.77;6.28;;;17.00;99.90;;;;;;5091551;28;20047;-67
2023/05/13 08:42:17;;;;;;;10.07;7.43;;;17.00;99.90;;;;;;5089870;28;20063;-67
2023/05/13 08:44:44;;;;;;;11.25;7.20;;;17.10;99.90;;;;;;5092445;28;20043;-67
2023/05/13 08:47:31;;;;;;;9.55;6.10;;;17.20;99.90;;;;;;5092218;28;20435;-67
2023/05/13 08:49:57;;;;;;;12.82;7.82;;;17.20;99.90;;;;;;5090376;28;20448;-67
2023/05/13 08:52:23;;;;;;;12.20;6.30;;;17.20;99.90;;;;;;5091575;28;20047;-66
2023/05/13 08:54:49;;;;;;;11.45;6.55;;;17.20;99.90;;;;;;5091719;28;20048;-67
2023/05/13 08:57:15;;;;;;;10.05;6.55;;;17.30;99.90;;;;;;5090769;28;20511;-67
2023/05/13 08:59:41;;;;;;;10.15;6.20;;;17.30;99.90;;;;;;5090737;28;20136;-67
2023/05/13 09:02:08;;;;;;;11.20;6.30;;;17.30;99.90;;;;;;5090041;28;20082;-67
2023/05/13 09:04:36;;;;;;;9.43;5.90;;;17.40;99.90;;;;;;5090991;28;20497;-67
2023/05/13 09:07:04;;;;;;;9.18;6.53;;;17.30;99.90;;;;;;5091158;28;20050;-66
2023/05/13 09:09:29;;;;;;;8.48;6.75;;;17.40;99.90;;;;;;5089700;28;20136;-67
2023/05/13 09:11:55;;;;;;;10.00;6.72;;;17.40;99.90;;;;;;5092295;28;20080;-67
2023/05/13 09:14:25;;;;;;;9.02;6.15;;;17.40;99.90;;;;;;5073995;28;20043;-67
2023/05/13 09:16:54;;;;;;;11.40;6.75;;;17.40;99.90;;;;;;5094556;28;20514;-67
2023/05/13 09:19:23;;;;;;;9.82;6.97;;;17.50;99.90;;;;;;5095632;28;20081;-67
2023/05/13 09:21:49;;;;;;;10.27;7.15;;;17.60;99.90;;;;;;5096252;28;20036;-67
2023/05/13 09:24:20;;;;;;;10.57;6.85;;;17.70;99.90;;;;;;5093882;28;20109;-67
2023/05/13 09:26:47;;;;;;;10.88;6.43;;;17.70;99.90;;;;;;5095153;28;20071;-67
2023/05/13 09:29:28;;;;;;;10.82;6.75;;;17.70;99.90;;;;;;5095726;28;20426;-67
2023/05/13 09:31:56;;;;;;;13.10;6.85;;;17.60;99.90;;;;;;5094195;28;20036;-67
2023/05/13 09:34:30;;;;;;;12.20;6.85;;;17.70;99.90;;;;;;5077432;28;20050;-67
2023/05/13 09:36:58;;;;;;;11.55;7.18;;;17.70;99.90;;;;;;5094268;28;20387;-67
2023/05/13 09:39:23;;;;;;;11.95;6.85;;;17.70;99.90;;;;;;5094015;28;20488;-67
2023/05/13 09:41:49;;;;;;;9.63;6.35;;;17.70;99.90;;;;;;5095552;28;20052;-67
2023/05/13 09:44:15;;;;;;;9.18;6.22;;;17.70;99.90;;;;;;5093395;28;20044;-67
2023/05/13 09:46:42;;;;;;;13.27;8.02;;;17.70;99.90;;;;;;5095641;28;20452;-66
2023/05/13 09:49:09;;;;;;;11.52;7.50;;;17.70;99.90;;;;;;5094339;28;20043;-67
2023/05/13 09:51:35;;;;;;;10.40;7.45;;;17.80;99.90;;;;;;5093361;28;20043;-67
2023/05/13 09:54:06;;;;;;;15.55;6.75;;;18.00;99.90;;;;;;5094422;28;20043;-67
2023/05/13 09:56:35;;;;;;;11.60;6.75;;;18.20;99.90;;;;;;5094902;28;20043;-67
2023/05/13 09:59:02;;;;;;;10.00;6.55;;;18.20;99.90;;;;;;5093565;28;20058;-67
2023/05/13 10:01:28;;;;;;;13.73;6.05;;;18.20;99.90;;;;;;5093644;28;20157;-67
2023/05/13 10:03:55;;;;;;;11.82;6.28;;;18.30;99.90;;;;;;5094052;28;20048;-67
2023/05/13 10:06:26;;;;;;;11.80;7.32;;;18.30;99.90;;;;;;5075618;28;20580;-66
2023/05/13 10:08:54;;;;;;;12.00;6.60;;;18.40;99.90;;;;;;5094039;28;20044;-67
2023/05/13 10:11:22;;;;;;;11.07;7.10;;;18.40;99.90;;;;;;5093339;28;20036;-67
2023/05/13 10:14:04;;;;;;;9.18;6.47;;;18.50;99.90;;;;;;5094471;28;20040;-67
2023/05/13 10:16:31;;;;;;;11.10;7.55;;;18.50;99.90;;;;;;5093390;28;20044;-67
2023/05/13 10:18:58;;;;;;;11.50;7.55;;;18.50;99.90;;;;;;5077212;28;20384;-67
2023/05/13 10:21:25;;;;;;;10.85;6.55;;;18.40;99.90;;;;;;5092911;28;20566;-66
2023/05/13 10:23:51;;;;;;;10.52;7.18;;;18.40;99.90;;;;;;5093823;28;20040;-67
2023/05/13 10:26:21;;;;;;;11.30;7.47;;;18.50;99.90;;;;;;5098164;28;20112;-63
2023/05/13 10:28:48;;;;;;;11.82;5.57;;;18.50;99.90;;;;;;5108808;28;20487;-63
2023/05/13 10:31:15;;;;;;;11.25;6.55;;;18.30;99.90;;;;;;5093489;28;20543;-64
2023/05/13 10:33:40;;;;;;;9.95;5.95;;;18.30;99.90;;;;;;5092751;28;20086;-64
2023/05/13 10:36:21;;;;;;;10.48;6.57;;;18.40;99.90;;;;;;5076753;28;20599;-64
2023/05/13 10:39:10;;;;;;;11.45;6.45;;;18.40;99.90;;;;;;5095015;28;20115;-64
2023/05/13 10:41:50;;;;;;;9.85;7.28;;;18.50;99.90;;;;;;5094711;28;20127;-64
2023/05/13 10:44:18;;;;;;;10.45;7.63;;;18.40;99.90;;;;;;5113985;28;20554;-64
2023/05/13 10:46:47;;;;;;;12.85;7.40;;;18.30;99.90;;;;;;5113620;28;20511;-64
2023/05/13 10:49:15;;;;;;;12.18;7.32;;;18.30;99.90;;;;;;5112700;28;20075;-64
2023/05/13 10:51:48;;;;;;;9.15;6.80;;;18.30;99.90;;;;;;5104808;28;20036;-64
2023/05/13 10:54:19;;;;;;;10.23;7.13;;;18.40;99.90;;;;;;5092863;28;20048;-64
2023/05/13 10:56:45;;;;;;;9.55;6.55;;;18.50;99.90;;;;;;5093462;28;20044;-64
2023/05/13 10:59:11;;;;;;;12.00;7.63;;;18.40;99.90;;;;;;5093171;28;20392;-64
2023/05/13 11:01:45;;;;;;;10.80;7.25;;;18.40;99.90;;;;;;5093463;28;20043;-63
2023/05/13 11:04:14;;;;;;;11.93;6.82;;;18.60;99.90;;;;;;5094070;28;20040;-65
2023/05/13 11:06:41;;;;;;;14.35;8.02;;;18.70;99.90;;;;;;5075864;28;20051;-64
2023/05/13 11:09:10;;;;;;;9.48;7.35;;;18.70;99.90;;;;;;5092401;28;20067;-64
2023/05/13 11:11:37;;;;;;;9.48;6.88;;;18.70;99.90;;;;;;5099582;28;20053;-67
2023/05/13 11:14:11;;;;;;;10.45;7.05;;;18.60;99.90;;;;;;5114344;28;20035;-64
2023/05/13 11:16:37;;;;;;;;;;;18.60;99.90;;;;;;5112741;28;20500;-64
2023/05/13 11:19:07;;;;;;;11.75;7.53;;;18.60;99.90;;;;;;5114526;28;20020;-64
2023/05/13 11:21:40;;;;;;;11.50;7.22;;;18.60;99.90;;;;;;5110613;27;20075;-64
2023/05/13 11:24:06;;;;;;;13.35;7.25;;;18.70;99.90;;;;;;5092871;28;20118;-64
2023/05/13 11:26:55;;;;;;;13.27;7.85;;;18.80;99.90;;;;;;5105722;28;20040;-64
2023/05/13 11:29:30;;;;;;;12.00;6.53;;;18.70;99.90;;;;;;5093498;28;20043;-64
2023/05/13 11:31:57;;;;;;;;;;;18.80;99.90;;;;;;5117243;27;20119;-65
2023/05/13 11:34:23;;;;;;;9.95;6.50;;;18.90;99.90;;;;;;5091811;28;19916;-65
2023/05/13 11:37:09;;;;;;;9.13;6.95;;;19.00;99.90;;;;;;5093189;28;20082;-65
2023/05/13 11:39:38;;;;;;;13.82;7.13;;;19.00;99.90;;;;;;5093566;28;20047;-65
2023/05/13 11:42:10;;;;;;;9.75;7.28;;;19.00;99.90;;;;;;5092027;28;20058;-65
2023/05/13 11:44:45;;;;;;;13.52;7.13;;;19.10;99.90;;;;;;5074216;28;20036;-65
2023/05/13 11:47:11;;;;;;;;;;;19.20;99.90;;;;;;5075500;28;20081;-65
2023/05/13 11:49:39;;;;;;;13.30;6.43;;;19.10;99.90;;;;;;5074947;28;19916;-64
2023/05/13 11:52:14;;;;;;;10.63;7.20;;;19.10;99.90;;;;;;5091475;28;20115;-64
2023/05/13 11:54:44;;;;;;;;;;;19.20;99.90;;;;;;5092494;28;20044;-65
2023/05/13 11:57:24;;;;;;;9.50;6.75;;;19.20;99.90;;;;;;5074985;28;20348;-65
2023/05/13 12:00:00;;;;;;;14.32;6.65;;;19.30;99.90;;;;;;5092381;28;20039;-65
2023/05/13 12:02:30;;;;;;;11.55;7.25;;;19.40;99.90;;;;;;5091142;28;20572;-65
2023/05/13 12:05:00;;;;;;;11.68;6.63;;;19.30;99.90;;;;;;5092421;28;20028;-65
2023/05/13 12:07:26;;;;;;;10.52;6.57;;;19.40;99.90;;;;;;5091456;28;20044;-64
2023/05/13 12:09:58;;;;;;;11.73;6.70;;;19.30;99.90;;;;;;5093130;28;20032;-65
2023/05/13 12:12:26;;;;;;;9.20;6.78;;;19.30;99.90;;;;;;5090198;28;20553;-65
2023/05/13 12:14:54;;;;;;;12.25;7.65;;;19.40;99.90;;;;;;5074688;28;20075;-65
2023/05/13 12:17:20;;;;;;;10.93;6.35;;;19.60;99.90;;;;;;5092549;28;20468;-65
2023/05/13 12:20:05;;;;;;;10.48;6.80;;;19.60;99.90;;;;;;5090952;28;20044;-64
2023/05/13 12:22:32;;;;;;;10.25;7.10;;;19.50;99.90;;;;;;5090685;28;20074;-64
2023/05/13 12:25:00;;;;;;;10.35;8.40;;;19.50;99.90;;;;;;5092964;28;20391;-64
2023/05/13 12:27:26;;;;;;;10.23;6.22;;;19.50;99.90;;;;;;5109756;28;20058;-65
2023/05/13 12:29:55;;;;;;;8.70;6.97;;;19.50;99.90;;;;;;5111839;28;20427;-65
2023/05/13 12:32:23;;;;;;;10.13;6.57;;;19.60;99.90;;;;;;5111300;28;20032;-65
2023/05/13 12:34:49;;;;;;;10.20;6.80;;;19.80;99.90;;;;;;5110741;28;20047;-64
2023/05/13 12:37:15;;;;;;;10.95;6.45;;;19.80;99.90;;;;;;5112671;28;20051;-65